sensor_id;sensor_type;location;lat;lon;timestamp;pressure;altitude;pressure_sealevel;temperature;humidity
33075;BME280;19433;51.292;6.868;2023-02-12T00:02:17;102578.63;;;6.62;100.00
33075;BME280;19433;51.292;6.868;2023-02-12T00:04:43;102579.75;;;6.59;100.00
33075;BME280;19433;51.292;6.868;2023-02-12T00:07:09;102576.78;;;6.51;100.00
33075;BME280;19433;51.292;6.868;2023-02-12T00:09:35;102585.78;;;6.53;100.00
33075;BME280;19433;51.292;6.868;2023-02-12T00:12:01;102594.50;;;6.69;100.00
33075;BME280;19433;51.292;6.868;2023-02-12T00:14:26;102586.22;;;6.81;100.00
33075;BME280;19433;51.292;6.868;2023-02-12T00:16:52;102577.50;;;6.64;100.00
33075;BME280;19433;51.292;6.868;2023-02-12T00:19:17;102587.00;;;6.60;100.00
33075;BME280;19433;51.292;6.868;2023-02-12T00:21:42;102580.16;;;6.55;100.00
33075;BME280;19433;51.292;6.868;2023-02-12T00:24:08;102576.41;;;6.56;100.00
33075;BME280;19433;51.292;6.868;2023-02-12T00:26:34;102572.28;;;6.50;100.00
33075;BME280;19433;51.292;6.868;2023-02-12T00:29:00;102571.41;;;6.50;100.00
33075;BME280;19433;51.292;6.868;2023-02-12T00:31:27;102572.28;;;6.50;100.00
33075;BME280;19433;51.292;6.868;2023-02-12T00:33:52;102577.50;;;6.64;100.00
33075;BME280;19433;51.292;6.868;2023-02-12T00:36:20;102583.91;;;6.54;100.00
33075;BME280;19433;51.292;6.868;2023-02-12T00:38:46;102589.53;;;6.52;100.00
33075;BME280;19433;51.292;6.868;2023-02-12T00:41:14;102591.75;;;6.47;100.00
33075;BME280;19433;51.292;6.868;2023-02-12T00:43:39;102587.38;;;6.45;100.00
33075;BME280;19433;51.292;6.868;2023-02-12T00:46:05;102586.78;;;6.41;100.00
33075;BME280;19433;51.292;6.868;2023-02-12T00:48:31;102585.50;;;6.45;100.00
33075;BME280;19433;51.292;6.868;2023-02-12T00:50:57;102585.91;;;6.41;100.00
33075;BME280;19433;51.292;6.868;2023-02-12T00:53:22;102591.41;;;6.41;100.00
33075;BME280;19433;51.292;6.868;2023-02-12T00:55:47;102584.28;;;6.38;100.00
33075;BME280;19433;51.292;6.868;2023-02-12T00:58:12;102579.03;;;6.35;100.00
33075;BME280;19433;51.292;6.868;2023-02-12T01:00:38;102580.56;;;6.39;100.00
33075;BME280;19433;51.292;6.868;2023-02-12T01:03:03;102572.56;;;6.36;100.00
33075;BME280;19433;51.292;6.868;2023-02-12T01:05:30;102570.06;;;6.33;100.00
33075;BME280;19433;51.292;6.868;2023-02-12T01:07:55;102575.53;;;6.33;100.00
33075;BME280;19433;51.292;6.868;2023-02-12T01:10:21;102570.06;;;6.33;100.00
33075;BME280;19433;51.292;6.868;2023-02-12T01:12:47;102589.53;;;6.41;100.00
33075;BME280;19433;51.292;6.868;2023-02-12T01:15:13;102589.75;;;6.49;100.00
33075;BME280;19433;51.292;6.868;2023-02-12T01:17:38;102567.41;;;6.43;100.00
33075;BME280;19433;51.292;6.868;2023-02-12T01:20:06;102569.28;;;6.42;100.00
33075;BME280;19433;51.292;6.868;2023-02-12T01:22:36;102568.94;;;6.35;100.00
33075;BME280;19433;51.292;6.868;2023-02-12T01:25:03;102567.56;;;6.30;100.00
33075;BME280;19433;51.292;6.868;2023-02-12T01:27:28;102564.81;;;6.41;100.00
33075;BME280;19433;51.292;6.868;2023-02-12T01:29:54;102561.19;;;6.29;100.00
33075;BME280;19433;51.292;6.868;2023-02-12T01:32:20;102560.44;;;6.16;100.00
33075;BME280;19433;51.292;6.868;2023-02-12T01:34:45;102563.19;;;6.16;100.00
33075;BME280;19433;51.292;6.868;2023-02-12T01:37:11;102575.69;;;6.20;100.00
33075;BME280;19433;51.292;6.868;2023-02-12T01:39:36;102575.28;;;6.14;100.00
33075;BME280;19433;51.292;6.868;2023-02-12T01:42:02;102565.06;;;6.16;100.00
33075;BME280;19433;51.292;6.868;2023-02-12T01:44:30;102576.69;;;6.19;100.00
33075;BME280;19433;51.292;6.868;2023-02-12T01:47:01;102566.94;;;6.15;100.00
33075;BME280;19433;51.292;6.868;2023-02-12T01:49:36;102567.31;;;6.22;100.00
33075;BME280;19433;51.292;6.868;2023-02-12T01:52:29;102563.59;;;6.23;100.00
33075;BME280;19433;51.292;6.868;2023-02-12T01:54:59;102567.09;;;6.25;100.00
33075;BME280;19433;51.292;6.868;2023-02-12T01:57:31;102561.97;;;6.20;100.00
33075;BME280;19433;51.292;6.868;2023-02-12T01:59:59;102577.44;;;6.21;100.00
33075;BME280;19433;51.292;6.868;2023-02-12T02:02:26;102574.56;;;6.23;100.00
33075;BME280;19433;51.292;6.868;2023-02-12T02:04:58;102560.59;;;6.26;100.00
33075;BME280;19433;51.292;6.868;2023-02-12T02:07:24;102554.84;;;6.18;100.00
33075;BME280;19433;51.292;6.868;2023-02-12T02:09:50;102565.47;;;6.22;100.00
33075;BME280;19433;51.292;6.868;2023-02-12T02:12:15;102563.47;;;6.24;100.00
33075;BME280;19433;51.292;6.868;2023-02-12T02:15:00;102552.59;;;6.34;100.00
33075;BME280;19433;51.292;6.868;2023-02-12T02:28:19;102563.94;;;6.29;100.00
33075;BME280;19433;51.292;6.868;2023-02-12T02:31:42;102564.19;;;6.15;100.00
33075;BME280;19433;51.292;6.868;2023-02-12T02:33:54;102557.84;;;6.26;100.00
33075;BME280;19433;51.292;6.868;2023-02-12T02:41:59;102553.84;;;6.19;100.00
33075;BME280;19433;51.292;6.868;2023-02-12T02:44:34;102552.97;;;6.18;100.00
33075;BME280;19433;51.292;6.868;2023-02-12T02:47:02;102548.88;;;6.24;100.00
33075;BME280;19433;51.292;6.868;2023-02-12T02:49:35;102533.16;;;6.26;100.00
33075;BME280;19433;51.292;6.868;2023-02-12T02:52:30;102545.38;;;6.22;100.00
33075;BME280;19433;51.292;6.868;2023-02-12T02:55:04;102550.09;;;6.20;100.00
33075;BME280;19433;51.292;6.868;2023-02-12T02:57:41;102552.38;;;6.26;100.00
33075;BME280;19433;51.292;6.868;2023-02-12T03:02:47;102542.72;;;5.98;100.00
33075;BME280;19433;51.292;6.868;2023-02-12T03:05:39;102547.72;;;6.04;100.00
33075;BME280;19433;51.292;6.868;2023-02-12T03:08:18;102554.44;;;6.11;100.00
33075;BME280;19433;51.292;6.868;2023-02-12T03:10:51;102546.63;;;5.95;100.00
33075;BME280;19433;51.292;6.868;2023-02-12T03:13:46;102543.59;;;5.98;100.00
33075;BME280;19433;51.292;6.868;2023-02-12T03:16:17;102541.97;;;5.96;100.00
33075;BME280;19433;51.292;6.868;2023-02-12T03:18:50;102537.56;;;5.82;100.00
33075;BME280;19433;51.292;6.868;2023-02-12T03:21:27;102537.34;;;5.85;100.00
33075;BME280;19433;51.292;6.868;2023-02-12T03:24:00;102544.03;;;5.70;100.00
33075;BME280;19433;51.292;6.868;2023-02-12T03:26:39;102536.69;;;5.71;100.00
33075;BME280;19433;51.292;6.868;2023-02-12T03:29:06;102527.72;;;5.69;100.00
33075;BME280;19433;51.292;6.868;2023-02-12T03:31:44;102540.44;;;5.70;100.00
33075;BME280;19433;51.292;6.868;2023-02-12T03:37:12;102532.09;;;5.71;100.00
33075;BME280;19433;51.292;6.868;2023-02-12T03:40:05;102547.47;;;5.96;100.00
33075;BME280;19433;51.292;6.868;2023-02-12T03:45:26;102548.31;;;5.85;100.00
33075;BME280;19433;51.292;6.868;2023-02-12T03:48:07;102548.94;;;5.78;100.00
33075;BME280;19433;51.292;6.868;2023-02-12T03:50:43;102550.28;;;5.83;100.00
33075;BME280;19433;51.292;6.868;2023-02-12T03:53:10;102552.66;;;5.77;100.00
33075;BME280;19433;51.292;6.868;2023-02-12T03:55:39;102545.91;;;5.81;100.00
33075;BME280;19433;51.292;6.868;2023-02-12T03:58:08;102541.81;;;5.86;100.00
33075;BME280;19433;51.292;6.868;2023-02-12T04:00:36;102537.56;;;5.82;100.00
33075;BME280;19433;51.292;6.868;2023-02-12T04:03:03;102537.53;;;5.95;100.00
33075;BME280;19433;51.292;6.868;2023-02-12T04:05:28;102542.13;;;5.94;100.00
33075;BME280;19433;51.292;6.868;2023-02-12T04:07:55;102537.84;;;5.79;100.00
33075;BME280;19433;51.292;6.868;2023-02-12T04:10:50;102552.59;;;5.89;100.00
33075;BME280;19433;51.292;6.868;2023-02-12T04:13:30;102545.22;;;6.01;100.00
33075;BME280;19433;51.292;6.868;2023-02-12T04:18:37;102552.09;;;5.95;100.00
33075;BME280;19433;51.292;6.868;2023-02-12T04:21:16;102555.34;;;6.00;100.00
33075;BME280;19433;51.292;6.868;2023-02-12T04:23:49;102566.19;;;6.13;100.00
33075;BME280;19433;51.292;6.868;2023-02-12T04:32:16;102571.44;;;5.94;100.00
33075;BME280;19433;51.292;6.868;2023-02-12T04:34:56;102578.78;;;5.93;100.00
33075;BME280;19433;51.292;6.868;2023-02-12T04:37:29;102579.78;;;5.92;100.00
33075;BME280;19433;51.292;6.868;2023-02-12T04:39:59;102583.28;;;5.94;100.00
33075;BME280;19433;51.292;6.868;2023-02-12T04:42:27;102579.03;;;6.02;100.00
33075;BME280;19433;51.292;6.868;2023-02-12T04:44:52;102580.25;;;5.97;100.00
33075;BME280;19433;51.292;6.868;2023-02-12T04:47:17;102576.84;;;5.83;100.00
33075;BME280;19433;51.292;6.868;2023-02-12T04:49:43;102586.03;;;5.94;100.00
33075;BME280;19433;51.292;6.868;2023-02-12T04:52:08;102591.00;;;5.89;100.00
33075;BME280;19433;51.292;6.868;2023-02-12T04:54:34;102594.63;;;6.01;100.00
33075;BME280;19433;51.292;6.868;2023-02-12T04:57:00;102598.59;;;5.97;100.00
33075;BME280;19433;51.292;6.868;2023-02-12T04:59:25;102593.88;;;5.99;100.00
33075;BME280;19433;51.292;6.868;2023-02-12T05:01:50;102577.66;;;5.96;100.00
33075;BME280;19433;51.292;6.868;2023-02-12T05:04:16;102585.03;;;5.95;100.00
33075;BME280;19433;51.292;6.868;2023-02-12T05:06:43;102585.75;;;5.97;100.00
33075;BME280;19433;51.292;6.868;2023-02-12T05:09:12;102581.88;;;5.89;100.00
33075;BME280;19433;51.292;6.868;2023-02-12T05:11:38;102589.50;;;5.96;100.00
33075;BME280;19433;51.292;6.868;2023-02-12T05:14:04;102590.13;;;6.11;100.00
33075;BME280;19433;51.292;6.868;2023-02-12T05:16:29;102587.50;;;5.98;100.00
33075;BME280;19433;51.292;6.868;2023-02-12T05:18:54;102590.13;;;5.89;100.00
33075;BME280;19433;51.292;6.868;2023-02-12T05:21:19;102591.44;;;5.83;100.00
33075;BME280;19433;51.292;6.868;2023-02-12T05:23:45;102593.41;;;5.81;100.00
33075;BME280;19433;51.292;6.868;2023-02-12T05:26:16;102592.88;;;5.89;100.00
33075;BME280;19433;51.292;6.868;2023-02-12T05:28:41;102598.75;;;6.07;100.00
33075;BME280;19433;51.292;6.868;2023-02-12T05:31:09;102592.28;;;6.08;100.00
33075;BME280;19433;51.292;6.868;2023-02-12T05:33:35;102592.13;;;5.98;100.00
33075;BME280;19433;51.292;6.868;2023-02-12T05:36:05;102592.13;;;5.98;100.00
33075;BME280;19433;51.292;6.868;2023-02-12T05:38:30;102600.63;;;5.95;100.00
33075;BME280;19433;51.292;6.868;2023-02-12T05:41:22;102602.47;;;5.94;100.00
33075;BME280;19433;51.292;6.868;2023-02-12T05:43:49;102598.97;;;5.92;100.00
33075;BME280;19433;51.292;6.868;2023-02-12T05:46:15;102600.09;;;6.01;100.00
33075;BME280;19433;51.292;6.868;2023-02-12T05:48:40;102605.59;;;6.01;100.00
33075;BME280;19433;51.292;6.868;2023-02-12T05:51:23;102612.06;;;6.00;100.00
33075;BME280;19433;51.292;6.868;2023-02-12T05:53:50;102598.00;;;6.05;100.00
33075;BME280;19433;51.292;6.868;2023-02-12T05:56:20;102614.09;;;6.09;100.00
33075;BME280;19433;51.292;6.868;2023-02-12T05:58:51;102603.09;;;5.98;100.00
33075;BME280;19433;51.292;6.868;2023-02-12T06:01:20;102612.06;;;6.00;100.00
33075;BME280;19433;51.292;6.868;2023-02-12T06:03:45;102606.72;;;5.98;100.00
33075;BME280;19433;51.292;6.868;2023-02-12T06:06:11;102616.56;;;6.12;100.00
33075;BME280;19433;51.292;6.868;2023-02-12T06:08:37;102618.84;;;6.07;100.00
33075;BME280;19433;51.292;6.868;2023-02-12T06:11:09;102616.84;;;6.09;100.00
33075;BME280;19433;51.292;6.868;2023-02-12T06:13:34;102606.97;;;6.18;100.00
33075;BME280;19433;51.292;6.868;2023-02-12T06:15:59;102610.47;;;6.09;100.00
33075;BME280;19433;51.292;6.868;2023-02-12T06:18:26;102614.09;;;6.09;100.00
33075;BME280;19433;51.292;6.868;2023-02-12T06:20:51;102611.97;;;6.13;100.00
33075;BME280;19433;51.292;6.868;2023-02-12T06:23:20;102594.75;;;5.99;100.00
33075;BME280;19433;51.292;6.868;2023-02-12T06:25:46;102607.97;;;6.06;100.00
33075;BME280;19433;51.292;6.868;2023-02-12T06:28:11;102611.59;;;6.17;100.00
33075;BME280;19433;51.292;6.868;2023-02-12T06:30:36;102604.00;;;6.21;100.00
33075;BME280;19433;51.292;6.868;2023-02-12T06:33:02;102623.34;;;6.19;100.00
33075;BME280;19433;51.292;6.868;2023-02-12T06:35:27;102609.72;;;5.95;100.00
33075;BME280;19433;51.292;6.868;2023-02-12T06:37:52;102613.22;;;6.09;100.00
33075;BME280;19433;51.292;6.868;2023-02-12T06:40:18;102611.59;;;6.06;100.00
33075;BME280;19433;51.292;6.868;2023-02-12T06:42:43;102620.19;;;6.13;100.00
33075;BME280;19433;51.292;6.868;2023-02-12T06:45:12;102612.59;;;6.05;100.00
33075;BME280;19433;51.292;6.868;2023-02-12T06:47:37;102614.69;;;6.13;100.00
33075;BME280;19433;51.292;6.868;2023-02-12T06:50:03;102621.31;;;5.99;100.00
33075;BME280;19433;51.292;6.868;2023-02-12T06:52:28;102630.66;;;5.96;100.00
33075;BME280;19433;51.292;6.868;2023-02-12T06:54:54;102633.28;;;5.98;100.00
33075;BME280;19433;51.292;6.868;2023-02-12T06:57:19;102624.03;;;5.99;100.00
33075;BME280;19433;51.292;6.868;2023-02-12T06:59:45;102636.41;;;6.05;100.00
33075;BME280;19433;51.292;6.868;2023-02-12T07:02:10;102633.91;;;6.13;100.00
33075;BME280;19433;51.292;6.868;2023-02-12T07:04:39;102640.03;;;6.16;100.00
33075;BME280;19433;51.292;6.868;2023-02-12T07:07:04;102632.81;;;6.15;100.00
33075;BME280;19433;51.292;6.868;2023-02-12T07:09:30;102628.31;;;6.14;100.00
33075;BME280;19433;51.292;6.868;2023-02-12T07:11:59;102638.16;;;6.17;100.00
33075;BME280;19433;51.292;6.868;2023-02-12T07:14:25;102639.69;;;6.21;100.00
33075;BME280;19433;51.292;6.868;2023-02-12T07:16:53;102649.66;;;6.22;100.00
33075;BME280;19433;51.292;6.868;2023-02-12T07:19:18;102637.94;;;6.31;100.00
33075;BME280;19433;51.292;6.868;2023-02-12T07:21:44;102643.69;;;6.39;100.00
33075;BME280;19433;51.292;6.868;2023-02-12T07:24:10;102639.94;;;6.40;100.00
33075;BME280;19433;51.292;6.868;2023-02-12T07:26:37;102643.41;;;6.42;100.00
33075;BME280;19433;51.292;6.868;2023-02-12T07:29:02;102646.16;;;6.42;100.00
33075;BME280;19433;51.292;6.868;2023-02-12T07:31:27;102648.94;;;6.53;100.00
33075;BME280;19433;51.292;6.868;2023-02-12T07:33:54;102649.56;;;6.57;100.00
33075;BME280;19433;51.292;6.868;2023-02-12T07:36:20;102658.28;;;6.62;100.00
33075;BME280;19433;51.292;6.868;2023-02-12T07:38:45;102661.16;;;6.60;100.00
33075;BME280;19433;51.292;6.868;2023-02-12T07:41:19;102659.69;;;6.56;100.00
33075;BME280;19433;51.292;6.868;2023-02-12T07:43:47;102662.66;;;6.53;100.00
33075;BME280;19433;51.292;6.868;2023-02-12T07:46:18;102664.28;;;6.56;100.00
33075;BME280;19433;51.292;6.868;2023-02-12T07:48:44;102663.41;;;6.55;100.00
33075;BME280;19433;51.292;6.868;2023-02-12T07:51:13;102655.16;;;6.66;100.00
33075;BME280;19433;51.292;6.868;2023-02-12T07:53:39;102657.91;;;6.78;100.00
33075;BME280;19433;51.292;6.868;2023-02-12T07:56:12;102664.66;;;6.85;100.00
33075;BME280;19433;51.292;6.868;2023-02-12T07:58:40;102663.38;;;6.89;100.00
33075;BME280;19433;51.292;6.868;2023-02-12T08:01:23;102664.50;;;6.97;100.00
33075;BME280;19433;51.292;6.868;2023-02-12T08:03:50;102672.63;;;6.99;100.00
33075;BME280;19433;51.292;6.868;2023-02-12T08:06:20;102669.13;;;6.97;100.00
33075;BME280;19433;51.292;6.868;2023-02-12T08:08:47;102670.09;;;7.07;100.00
33075;BME280;19433;51.292;6.868;2023-02-12T08:11:14;102669.47;;;7.15;100.00
33075;BME280;19433;51.292;6.868;2023-02-12T08:13:40;102684.06;;;7.26;100.00
33075;BME280;19433;51.292;6.868;2023-02-12T08:16:11;102673.25;;;7.34;100.00
33075;BME280;19433;51.292;6.868;2023-02-12T08:18:37;102679.00;;;7.43;100.00
33075;BME280;19433;51.292;6.868;2023-02-12T08:21:04;102684.13;;;7.47;100.00
33075;BME280;19433;51.292;6.868;2023-02-12T08:23:30;102679.34;;;7.49;100.00
33075;BME280;19433;51.292;6.868;2023-02-12T08:26:18;102687.69;;;7.59;100.00
33075;BME280;19433;51.292;6.868;2023-02-12T08:28:49;102688.22;;;7.53;100.00
33075;BME280;19433;51.292;6.868;2023-02-12T08:31:20;102693.63;;;7.75;100.00
33075;BME280;19433;51.292;6.868;2023-02-12T08:33:47;102692.84;;;7.84;100.00
33075;BME280;19433;51.292;6.868;2023-02-12T08:36:16;102693.50;;;7.97;100.00
33075;BME280;19433;51.292;6.868;2023-02-12T08:38:43;102698.09;;;8.08;100.00
33075;BME280;19433;51.292;6.868;2023-02-12T08:41:11;102695.88;;;8.23;100.00
33075;BME280;19433;51.292;6.868;2023-02-12T08:43:37;102699.81;;;8.30;100.00
33075;BME280;19433;51.292;6.868;2023-02-12T08:46:08;102702.09;;;8.66;100.00
33075;BME280;19433;51.292;6.868;2023-02-12T08:48:34;102707.63;;;8.66;100.00
33075;BME280;19433;51.292;6.868;2023-02-12T08:51:18;102700.63;;;8.62;100.00
33075;BME280;19433;51.292;6.868;2023-02-12T08:53:46;102704.72;;;8.68;100.00
33075;BME280;19433;51.292;6.868;2023-02-12T08:56:13;102699.28;;;8.57;100.00
33075;BME280;19433;51.292;6.868;2023-02-12T08:58:38;102701.13;;;8.46;100.00
33075;BME280;19433;51.292;6.868;2023-02-12T09:01:09;102705.88;;;8.65;100.00
33075;BME280;19433;51.292;6.868;2023-02-12T09:03:35;102701.66;;;9.01;100.00
33075;BME280;19433;51.292;6.868;2023-02-12T09:06:05;102704.66;;;8.89;100.00
33075;BME280;19433;51.292;6.868;2023-02-12T09:08:30;102711.25;;;8.97;100.00
33075;BME280;19433;51.292;6.868;2023-02-12T09:10:56;102704.00;;;9.06;100.00
33075;BME280;19433;51.292;6.868;2023-02-12T09:13:21;102712.81;;;9.40;100.00
33075;BME280;19433;51.292;6.868;2023-02-12T09:15:46;102707.41;;;9.29;99.79
33075;BME280;19433;51.292;6.868;2023-02-12T09:18:13;102719.19;;;9.31;100.00
33075;BME280;19433;51.292;6.868;2023-02-12T09:20:40;102721.22;;;9.48;99.44
33075;BME280;19433;51.292;6.868;2023-02-12T09:23:07;102717.31;;;9.50;97.23
33075;BME280;19433;51.292;6.868;2023-02-12T09:25:33;102714.28;;;9.63;97.09
33075;BME280;19433;51.292;6.868;2023-02-12T09:28:02;102711.66;;;9.42;97.02
33075;BME280;19433;51.292;6.868;2023-02-12T09:30:28;102727.34;;;9.51;96.48
33075;BME280;19433;51.292;6.868;2023-02-12T09:32:55;102716.78;;;9.85;94.89
33075;BME280;19433;51.292;6.868;2023-02-12T09:35:23;102720.53;;;9.94;95.56
33075;BME280;19433;51.292;6.868;2023-02-12T09:37:48;102719.66;;;10.13;94.70
33075;BME280;19433;51.292;6.868;2023-02-12T09:43:03;102726.09;;;10.33;88.97
33075;BME280;19433;51.292;6.868;2023-02-12T09:45:44;102715.31;;;10.10;92.27
33075;BME280;19433;51.292;6.868;2023-02-12T09:51:05;102718.19;;;10.47;90.71
33075;BME280;19433;51.292;6.868;2023-02-12T09:53:34;102722.78;;;10.76;89.05
33075;BME280;19433;51.292;6.868;2023-02-12T09:56:00;102726.31;;;10.68;89.91
33075;BME280;19433;51.292;6.868;2023-02-12T09:58:33;102719.81;;;10.87;88.38
33075;BME280;19433;51.292;6.868;2023-02-12T10:01:01;102729.94;;;11.06;87.65
33075;BME280;19433;51.292;6.868;2023-02-12T10:03:34;102724.91;;;10.91;86.67
33075;BME280;19433;51.292;6.868;2023-02-12T10:06:03;102728.25;;;10.48;87.43
33075;BME280;19433;51.292;6.868;2023-02-12T10:08:45;102736.69;;;9.99;88.96
33075;BME280;19433;51.292;6.868;2023-02-12T10:14:05;102730.13;;;10.95;88.07
33075;BME280;19433;51.292;6.868;2023-02-12T10:16:59;102734.44;;;11.34;85.20
33075;BME280;19433;51.292;6.868;2023-02-12T10:22:49;102731.94;;;11.13;82.05
33075;BME280;19433;51.292;6.868;2023-02-12T10:25:57;102745.41;;;10.04;86.48
33075;BME280;19433;51.292;6.868;2023-02-12T10:28:35;102742.31;;;10.55;88.53
33075;BME280;19433;51.292;6.868;2023-02-12T10:31:07;102734.44;;;11.07;81.75
33075;BME280;19433;51.292;6.868;2023-02-12T10:33:47;102728.91;;;11.07;81.61
33075;BME280;19433;51.292;6.868;2023-02-12T10:36:44;102728.66;;;11.55;79.37
33075;BME280;19433;51.292;6.868;2023-02-12T10:41:49;102726.41;;;11.86;77.54
33075;BME280;19433;51.292;6.868;2023-02-12T10:44:16;102727.75;;;12.00;76.52
33075;BME280;19433;51.292;6.868;2023-02-12T10:46:42;102719.28;;;12.19;76.03
33075;BME280;19433;51.292;6.868;2023-02-12T10:49:10;102728.00;;;12.06;76.30
33075;BME280;19433;51.292;6.868;2023-02-12T10:54:36;102725.19;;;12.24;75.50
33075;BME280;19433;51.292;6.868;2023-02-12T10:57:28;102732.84;;;12.74;75.87
33075;BME280;19433;51.292;6.868;2023-02-12T10:59:55;102730.00;;;12.91;75.05
33075;BME280;19433;51.292;6.868;2023-02-12T11:02:32;102733.13;;;12.37;73.78
33075;BME280;19433;51.292;6.868;2023-02-12T11:04:59;102724.06;;;12.52;73.37
33075;BME280;19433;51.292;6.868;2023-02-12T11:07:49;102727.19;;;12.57;73.50
33075;BME280;19433;51.292;6.868;2023-02-12T11:12:53;102714.34;;;11.59;79.21
33075;BME280;19433;51.292;6.868;2023-02-12T11:15:22;102706.06;;;11.77;80.29
33075;BME280;19433;51.292;6.868;2023-02-12T11:17:57;102705.63;;;12.25;79.59
33075;BME280;19433;51.292;6.868;2023-02-12T11:23:21;102710.97;;;12.71;76.91
33075;BME280;19433;51.292;6.868;2023-02-12T11:29:00;102712.13;;;12.34;74.43
33075;BME280;19433;51.292;6.868;2023-02-12T11:31:28;102704.16;;;12.13;76.19
33075;BME280;19433;51.292;6.868;2023-02-12T11:36:30;102707.19;;;12.46;72.93
33075;BME280;19433;51.292;6.868;2023-02-12T11:38:57;102687.84;;;12.10;73.97
33075;BME280;19433;51.292;6.868;2023-02-12T11:41:33;102687.28;;;12.50;74.07
33075;BME280;19433;51.292;6.868;2023-02-12T11:44:02;102688.09;;;12.43;74.39
33075;BME280;19433;51.292;6.868;2023-02-12T11:46:33;102698.75;;;12.55;73.95
33075;BME280;19433;51.292;6.868;2023-02-12T11:49:00;102686.47;;;12.58;74.75
33075;BME280;19433;51.292;6.868;2023-02-12T11:51:28;102692.63;;;12.26;73.76
33075;BME280;19433;51.292;6.868;2023-02-12T11:53:58;102690.19;;;12.23;73.77
33075;BME280;19433;51.292;6.868;2023-02-12T11:56:39;102684.13;;;12.19;73.68
33075;BME280;19433;51.292;6.868;2023-02-12T12:01:46;102673.63;;;11.87;78.25
33075;BME280;19433;51.292;6.868;2023-02-12T12:04:14;102683.97;;;12.03;77.14
33075;BME280;19433;51.292;6.868;2023-02-12T12:06:52;102682.97;;;11.86;77.01
33075;BME280;19433;51.292;6.868;2023-02-12T12:09:28;102673.31;;;11.90;76.55
33075;BME280;19433;51.292;6.868;2023-02-12T12:12:20;102678.81;;;12.08;75.51
33075;BME280;19433;51.292;6.868;2023-02-12T12:17:58;102673.28;;;12.08;77.91
33075;BME280;19433;51.292;6.868;2023-02-12T12:20:57;102674.22;;;12.17;77.94
33075;BME280;19433;51.292;6.868;2023-02-12T12:23:39;102665.78;;;12.01;76.59
33075;BME280;19433;51.292;6.868;2023-02-12T12:26:11;102668.38;;;12.02;76.42
33075;BME280;19433;51.292;6.868;2023-02-12T12:34:00;102648.81;;;10.50;82.59
33075;BME280;19433;51.292;6.868;2023-02-12T12:36:53;102645.44;;;10.56;82.00
33075;BME280;19433;51.292;6.868;2023-02-12T12:42:30;102635.16;;;11.04;82.13
33075;BME280;19433;51.292;6.868;2023-02-12T12:51:07;102627.69;;;10.86;80.62
33075;BME280;19433;51.292;6.868;2023-02-12T12:54:10;102631.63;;;11.11;81.09
33075;BME280;19433;51.292;6.868;2023-02-12T12:56:53;102627.06;;;11.38;80.98
33075;BME280;19433;51.292;6.868;2023-02-12T13:05:00;102624.09;;;10.76;80.86
33075;BME280;19433;51.292;6.868;2023-02-12T13:10:33;102606.44;;;11.50;78.93
33075;BME280;19433;51.292;6.868;2023-02-12T13:13:08;102604.31;;;11.79;78.66
33075;BME280;19433;51.292;6.868;2023-02-12T13:26:56;102601.06;;;11.84;78.52
33075;BME280;19433;51.292;6.868;2023-02-12T13:32:02;102594.88;;;11.72;77.68
33075;BME280;19433;51.292;6.868;2023-02-12T13:34:30;102587.56;;;11.45;75.92
33075;BME280;19433;51.292;6.868;2023-02-12T13:36:59;102587.53;;;11.81;77.45
33075;BME280;19433;51.292;6.868;2023-02-12T13:39:32;102590.84;;;11.67;78.96
33075;BME280;19433;51.292;6.868;2023-02-12T13:42:06;102588.97;;;11.85;77.92
33075;BME280;19433;51.292;6.868;2023-02-12T13:47:39;102586.56;;;11.72;77.15
33075;BME280;19433;51.292;6.868;2023-02-12T13:52:53;102585.97;;;11.60;76.71
33075;BME280;19433;51.292;6.868;2023-02-12T13:55:30;102574.81;;;11.52;76.92
33075;BME280;19433;51.292;6.868;2023-02-12T14:01:11;102578.44;;;11.35;80.98
33075;BME280;19433;51.292;6.868;2023-02-12T14:03:38;102574.47;;;11.20;82.19
33075;BME280;19433;51.292;6.868;2023-02-12T14:06:22;102573.63;;;11.19;82.91
33075;BME280;19433;51.292;6.868;2023-02-12T14:08:52;102576.31;;;11.11;81.70
33075;BME280;19433;51.292;6.868;2023-02-12T14:11:25;102576.63;;;11.08;81.30
33075;BME280;19433;51.292;6.868;2023-02-12T14:13:59;102575.13;;;10.69;81.72
33075;BME280;19433;51.292;6.868;2023-02-12T14:21:56;102574.28;;;10.86;83.96
33075;BME280;19433;51.292;6.868;2023-02-12T14:27:45;102575.25;;;10.40;84.63
33075;BME280;19433;51.292;6.868;2023-02-12T14:38:21;102582.88;;;10.55;87.21
33075;BME280;19433;51.292;6.868;2023-02-12T14:40:52;102586.50;;;10.56;85.18
33075;BME280;19433;51.292;6.868;2023-02-12T14:43:28;102578.44;;;10.72;82.83
33075;BME280;19433;51.292;6.868;2023-02-12T14:51:39;102569.09;;;10.18;85.28
33075;BME280;19433;51.292;6.868;2023-02-12T14:54:59;102566.91;;;10.22;85.98
33075;BME280;19433;51.292;6.868;2023-02-12T14:57:02;102574.88;;;10.25;87.82
33075;BME280;19433;51.292;6.868;2023-02-12T14:59:32;102574.13;;;10.33;86.30
33075;BME280;19433;51.292;6.868;2023-02-12T15:02:03;102570.09;;;10.17;86.11
33075;BME280;19433;51.292;6.868;2023-02-12T15:04:32;102573.25;;;9.76;88.20
33075;BME280;19433;51.292;6.868;2023-02-12T15:07:06;102564.22;;;9.83;89.06
33075;BME280;19433;51.292;6.868;2023-02-12T15:09:43;102571.19;;;9.78;88.34
33075;BME280;19433;51.292;6.868;2023-02-12T15:12:17;102574.25;;;9.75;90.04
33075;BME280;19433;51.292;6.868;2023-02-12T15:14:49;102563.03;;;9.86;90.13
33075;BME280;19433;51.292;6.868;2023-02-12T15:17:26;102566.78;;;9.95;89.25
33075;BME280;19433;51.292;6.868;2023-02-12T15:19:58;102555.06;;;9.83;89.51
33075;BME280;19433;51.292;6.868;2023-02-12T15:25:20;102555.69;;;9.58;90.65
33075;BME280;19433;51.292;6.868;2023-02-12T15:27:48;102548.59;;;9.45;90.61